Time;durP1;ratioP1;P1;durP2;ratioP2;P2;SDS_P1;SDS_P2;PMS_P1;PMS_P2;Temp;Humidity;BMP_temperature;BMP_pressure;BME280_temperature;BME280_humidity;BME280_pressure;Samples;Min_cycle;Max_cycle;Signal;HPM_P1;HPM_P2
2023/12/05 00:00:19;;;;;;;19.87;13.77;;;1.70;90.20;;;;;;6246463;23;20046;-76
2023/12/05 00:02:45;;;;;;;21.10;14.10;;;1.70;90.00;;;;;;6246839;23;20013;-77
2023/12/05 00:05:11;;;;;;;19.53;13.30;;;1.70;90.00;;;;;;6246761;23;20008;-77
2023/12/05 00:07:38;;;;;;;18.93;13.23;;;1.70;90.00;;;;;;6246843;23;20385;-77
2023/12/05 00:10:05;;;;;;;20.53;13.67;;;1.70;90.00;;;;;;6218966;23;20023;-77
2023/12/05 00:12:30;;;;;;;19.30;13.37;;;1.70;90.00;;;;;;6219883;23;20050;-77
2023/12/05 00:14:56;;;;;;;20.50;13.80;;;1.70;90.20;;;;;;6219617;23;20016;-77
2023/12/05 00:17:22;;;;;;;19.57;13.43;;;1.70;90.00;;;;;;6247283;23;20043;-77
2023/12/05 00:19:47;;;;;;;19.27;12.67;;;1.70;90.10;;;;;;6246586;23;20036;-77
2023/12/05 00:22:13;;;;;;;18.03;13.17;;;1.70;90.00;;;;;;6219576;23;20024;-77
2023/12/05 00:24:38;;;;;;;18.50;12.90;;;1.70;90.00;;;;;;6219724;23;20012;-77
2023/12/05 00:27:04;;;;;;;17.97;12.73;;;1.70;90.00;;;;;;6219522;23;20012;-77
2023/12/05 00:29:30;;;;;;;17.90;12.87;;;1.70;90.00;;;;;;6218907;23;20496;-77
2023/12/05 00:31:55;;;;;;;17.63;12.33;;;1.60;90.00;;;;;;6219364;23;20365;-76
2023/12/05 00:34:21;;;;;;;18.67;12.97;;;1.60;90.00;;;;;;6219533;23;20023;-77
2023/12/05 00:36:46;;;;;;;19.97;13.20;;;1.70;90.00;;;;;;6246636;23;20441;-77
2023/12/05 00:39:12;;;;;;;20.77;13.67;;;1.60;90.00;;;;;;6246508;23;20004;-77
2023/12/05 00:41:37;;;;;;;18.77;12.50;;;1.60;90.00;;;;;;6245889;23;20372;-77
2023/12/05 00:44:03;;;;;;;18.20;12.97;;;1.60;90.00;;;;;;6246093;23;20035;-77
2023/12/05 00:46:29;;;;;;;17.97;13.10;;;1.60;90.00;;;;;;6246697;23;20070;-77
2023/12/05 00:48:54;;;;;;;18.57;12.67;;;1.60;90.10;;;;;;6219462;23;20337;-77
2023/12/05 00:51:20;;;;;;;17.33;12.90;;;1.60;90.00;;;;;;6219053;23;20028;-77
2023/12/05 00:53:45;;;;;;;21.57;13.93;;;1.60;90.00;;;;;;6219730;23;20016;-77
2023/12/05 00:56:11;;;;;;;19.67;14.13;;;1.60;90.00;;;;;;6219651;23;20492;-77
2023/12/05 00:58:37;;;;;;;20.07;13.53;;;1.60;90.00;;;;;;6245683;23;20011;-76
2023/12/05 01:01:03;;;;;;;19.43;13.33;;;1.60;90.00;;;;;;6246053;23;20009;-76
2023/12/05 01:03:29;;;;;;;18.57;13.50;;;1.60;90.00;;;;;;6246495;23;20008;-76
2023/12/05 01:05:54;;;;;;;20.83;15.07;;;1.60;90.00;;;;;;6219369;23;20016;-76
2023/12/05 01:08:20;;;;;;;18.00;13.30;;;1.60;90.00;;;;;;6219212;23;20012;-76
2023/12/05 01:10:45;;;;;;;21.87;15.07;;;1.60;90.00;;;;;;6246068;23;20018;-76
2023/12/05 01:13:11;;;;;;;20.73;14.33;;;1.60;90.00;;;;;;6246039;23;20012;-76
2023/12/05 01:15:36;;;;;;;19.77;14.43;;;1.50;90.00;;;;;;6246228;23;20026;-76
2023/12/05 01:18:02;;;;;;;20.27;14.23;;;1.50;90.00;;;;;;6219185;23;20392;-77
2023/12/05 01:20:28;;;;;;;20.43;14.13;;;1.50;90.00;;;;;;6219082;23;20012;-77
2023/12/05 01:22:54;;;;;;;20.97;14.40;;;1.50;90.10;;;;;;6218670;23;20399;-76
2023/12/05 01:25:20;;;;;;;21.67;13.93;;;1.50;90.00;;;;;;6218726;23;20008;-76
2023/12/05 01:27:45;;;;;;;21.80;15.27;;;1.50;90.10;;;;;;6218343;23;20004;-76
2023/12/05 01:30:11;;;;;;;20.30;14.40;;;1.50;90.00;;;;;;6246171;23;20066;-76
2023/12/05 01:32:37;;;;;;;20.90;14.60;;;1.50;90.10;;;;;;6218772;23;20352;-76
2023/12/05 01:35:03;;;;;;;22.07;15.90;;;1.50;90.10;;;;;;6218690;23;20012;-76
2023/12/05 01:37:29;;;;;;;21.00;14.80;;;1.40;90.10;;;;;;6219059;23;20009;-76
2023/12/05 01:39:54;;;;;;;22.50;15.50;;;1.40;90.10;;;;;;6246252;23;20016;-76
2023/12/05 01:42:20;;;;;;;22.27;14.90;;;1.40;90.10;;;;;;6245929;23;20436;-76
2023/12/05 01:44:45;;;;;;;21.27;15.37;;;1.50;90.20;;;;;;6245593;23;20039;-76
2023/12/05 01:47:13;;;;;;;20.83;14.63;;;1.40;90.10;;;;;;6218892;23;20020;-76
2023/12/05 01:49:41;;;;;;;20.97;14.77;;;1.40;90.20;;;;;;6245769;23;20016;-76
2023/12/05 01:52:07;;;;;;;21.73;14.97;;;1.40;90.20;;;;;;6193646;23;20015;-76
2023/12/05 01:54:33;;;;;;;21.57;15.00;;;1.40;90.20;;;;;;6245592;23;20083;-76
2023/12/05 01:56:59;;;;;;;20.83;14.80;;;1.40;90.20;;;;;;6245609;23;20091;-76
2023/12/05 01:59:25;;;;;;;19.43;14.33;;;1.40;90.20;;;;;;6218762;23;20008;-77
2023/12/05 02:01:52;;;;;;;19.50;13.97;;;1.40;90.30;;;;;;6218460;23;20020;-77
2023/12/05 02:04:18;;;;;;;20.57;14.73;;;1.40;90.30;;;;;;6218455;23;20078;-77
2023/12/05 02:06:46;;;;;;;22.33;14.57;;;1.40;90.30;;;;;;6218909;23;20453;-77
2023/12/05 02:09:13;;;;;;;22.33;14.60;;;1.40;90.40;;;;;;6245929;23;20007;-77
2023/12/05 02:11:41;;;;;;;20.23;14.60;;;1.40;90.40;;;;;;6217852;23;20012;-77
2023/12/05 02:14:08;;;;;;;21.17;15.17;;;1.40;90.40;;;;;;6218378;23;20079;-77
2023/12/05 02:16:53;;;;;;;21.57;15.20;;;1.40;90.40;;;;;;6246506;23;20008;-77
2023/12/05 02:19:33;;;;;;;21.45;14.75;;;1.40;90.50;;;;;;6245419;23;20387;-76
2023/12/05 02:22:01;;;;;;;20.57;15.40;;;1.40;90.50;;;;;;6245319;23;20091;-76
2023/12/05 02:25:09;;;;;;;19.47;14.83;;;1.40;90.40;;;;;;6218298;23;20103;-76
2023/12/05 02:27:42;;;;;;;21.77;15.37;;;1.40;90.50;;;;;;6245240;23;20010;-76
2023/12/05 02:30:09;;;;;;;22.57;15.87;;;1.40;90.40;;;;;;6245471;23;20019;-76
2023/12/05 02:32:35;;;;;;;20.83;14.93;;;1.40;90.40;;;;;;6243369;23;20012;-76
2023/12/05 02:35:02;;;;;;;21.43;15.43;;;1.40;90.40;;;;;;6245446;23;20020;-76
2023/12/05 02:37:58;;;;;;;21.63;15.07;;;1.40;90.40;;;;;;6245735;23;20009;-76
2023/12/05 02:40:46;;;;;;;21.43;15.27;;;1.40;90.40;;;;;;6241583;23;20016;-76
2023/12/05 02:43:19;;;;;;;23.00;16.80;;;1.40;90.50;;;;;;6244806;23;20460;-76
2023/12/05 02:45:49;;;;;;;23.27;16.43;;;1.40;90.50;;;;;;6245075;23;20008;-76
2023/12/05 02:48:17;;;;;;;23.67;16.37;;;1.40;90.50;;;;;;6218240;23;20012;-76
2023/12/05 02:50:44;;;;;;;21.87;15.63;;;1.40;90.50;;;;;;6245638;23;20051;-76
2023/12/05 02:53:10;;;;;;;23.80;17.27;;;1.40;90.50;;;;;;6244879;23;20023;-76
2023/12/05 02:55:37;;;;;;;22.13;15.80;;;1.40;90.50;;;;;;6218119;23;20020;-76
2023/12/05 02:58:03;;;;;;;21.90;16.27;;;1.30;90.50;;;;;;6245457;23;20088;-76
2023/12/05 03:00:28;;;;;;;24.27;16.73;;;1.40;90.50;;;;;;6218075;23;20047;-76
2023/12/05 03:02:54;;;;;;;28.10;19.93;;;1.40;90.60;;;;;;6244613;23;20445;-76
2023/12/05 03:05:19;;;;;;;23.00;17.07;;;1.40;90.60;;;;;;6244783;23;20023;-76
2023/12/05 03:07:45;;;;;;;24.33;17.50;;;1.40;90.60;;;;;;6218429;23;20322;-76
2023/12/05 03:10:11;;;;;;;26.10;18.17;;;1.30;90.60;;;;;;6217933;23;20052;-77
2023/12/05 03:12:37;;;;;;;25.53;18.23;;;1.30;90.60;;;;;;6244829;23;20452;-77
2023/12/05 03:15:03;;;;;;;25.63;18.03;;;1.30;90.70;;;;;;6245382;23;20500;-77
2023/12/05 03:17:29;;;;;;;25.73;18.00;;;1.40;90.70;;;;;;6245495;23;20008;-77
2023/12/05 03:19:54;;;;;;;24.37;18.10;;;1.30;90.70;;;;;;6218069;23;20016;-76
2023/12/05 03:22:20;;;;;;;24.00;17.60;;;1.40;90.70;;;;;;6217950;23;20337;-76
2023/12/05 03:24:46;;;;;;;24.27;17.77;;;1.40;90.70;;;;;;6217834;23;20460;-76
2023/12/05 03:27:11;;;;;;;26.63;18.63;;;1.40;90.70;;;;;;6245379;23;20019;-76
2023/12/05 03:29:37;;;;;;;26.03;19.13;;;1.40;90.70;;;;;;6245054;23;20019;-76
2023/12/05 03:32:03;;;;;;;25.37;18.10;;;1.40;90.70;;;;;;6244621;23;20008;-77
2023/12/05 03:34:28;;;;;;;26.50;18.83;;;1.40;90.70;;;;;;6217903;23;20020;-77
2023/12/05 03:36:54;;;;;;;25.93;17.93;;;1.40;90.70;;;;;;6218340;23;20343;-77
2023/12/05 03:39:19;;;;;;;25.30;18.50;;;1.40;90.70;;;;;;6244676;23;20022;-77
2023/12/05 03:41:47;;;;;;;24.73;18.70;;;1.40;90.70;;;;;;6217866;23;20441;-77
2023/12/05 03:44:13;;;;;;;24.07;17.43;;;1.40;90.70;;;;;;6218082;23;20016;-77
2023/12/05 03:46:38;;;;;;;23.17;17.93;;;1.40;90.80;;;;;;6218070;23;20126;-77
2023/12/05 03:49:04;;;;;;;23.23;17.30;;;1.40;90.70;;;;;;6245198;23;20016;-77
2023/12/05 03:51:30;;;;;;;23.90;17.60;;;1.40;90.70;;;;;;6217758;23;20023;-77
2023/12/05 03:53:55;;;;;;;25.17;18.40;;;1.40;90.70;;;;;;6192841;23;20020;-77
2023/12/05 03:56:21;;;;;;;24.90;18.87;;;1.40;90.70;;;;;;6217909;23;20026;-77
2023/12/05 03:58:47;;;;;;;26.53;19.83;;;1.40;90.70;;;;;;6244605;23;20520;-77
2023/12/05 04:01:12;;;;;;;27.83;20.07;;;1.40;90.70;;;;;;6244806;23;20047;-77
2023/12/05 04:03:38;;;;;;;26.40;19.03;;;1.40;90.70;;;;;;6244818;23;20019;-78
2023/12/05 04:06:04;;;;;;;26.80;19.63;;;1.40;90.70;;;;;;6218013;23;20349;-78
2023/12/05 04:08:29;;;;;;;24.47;18.77;;;1.40;90.70;;;;;;6218066;23;20012;-77
2023/12/05 04:10:55;;;;;;;26.33;18.17;;;1.40;90.70;;;;;;6217765;23;20548;-78
2023/12/05 04:13:20;;;;;;;27.67;19.97;;;1.40;90.70;;;;;;6244724;23;20004;-78
2023/12/05 04:15:46;;;;;;;27.33;20.03;;;1.40;90.70;;;;;;6218122;23;20016;-78
2023/12/05 04:18:11;;;;;;;27.67;19.77;;;1.40;90.70;;;;;;6246936;23;20004;-78
2023/12/05 04:20:37;;;;;;;27.10;19.67;;;1.40;90.70;;;;;;6246859;23;20043;-78
2023/12/05 04:23:03;;;;;;;26.83;19.77;;;1.40;90.70;;;;;;6219162;23;20016;-78
2023/12/05 04:25:28;;;;;;;28.93;20.80;;;1.50;90.70;;;;;;6221732;23;20100;-77
2023/12/05 04:27:54;;;;;;;27.27;20.27;;;1.40;90.70;;;;;;6247501;23;20008;-78
2023/12/05 04:30:20;;;;;;;29.40;20.93;;;1.50;90.70;;;;;;6246454;23;20445;-77
2023/12/05 04:32:46;;;;;;;28.33;20.33;;;1.50;90.70;;;;;;6246269;23;20008;-78
2023/12/05 04:35:12;;;;;;;30.13;21.40;;;1.40;90.70;;;;;;6194431;23;20027;-78
2023/12/05 04:37:37;;;;;;;28.17;19.97;;;1.40;90.70;;;;;;6219525;23;20019;-77
2023/12/05 04:40:04;;;;;;;28.50;20.57;;;1.50;90.70;;;;;;6219479;23;20441;-78
2023/12/05 04:42:29;;;;;;;31.80;21.93;;;1.50;90.70;;;;;;6246716;23;20092;-78
2023/12/05 04:44:55;;;;;;;29.40;21.47;;;1.50;90.70;;;;;;6219401;23;20012;-78
2023/12/05 04:47:20;;;;;;;27.97;20.17;;;1.50;90.70;;;;;;6246764;23;20019;-78
2023/12/05 04:49:46;;;;;;;28.40;20.53;;;1.50;90.70;;;;;;6246798;23;20008;-78
2023/12/05 04:52:12;;;;;;;32.87;22.27;;;1.50;90.70;;;;;;6245990;23;20012;-78
2023/12/05 04:54:38;;;;;;;31.53;22.27;;;1.40;90.70;;;;;;6246808;23;20016;-78
2023/12/05 04:57:04;;;;;;;28.40;20.70;;;1.50;90.70;;;;;;6219009;23;20012;-78
2023/12/05 04:59:29;;;;;;;31.90;22.70;;;1.50;90.70;;;;;;6219407;23;20146;-78
2023/12/05 05:01:55;;;;;;;29.40;20.93;;;1.50;90.70;;;;;;6218999;23;20091;-78
2023/12/05 05:04:20;;;;;;;31.17;21.87;;;1.50;90.70;;;;;;6219041;23;20016;-78
2023/12/05 05:06:46;;;;;;;31.67;22.63;;;1.50;90.70;;;;;;6244725;23;20487;-78
2023/12/05 05:09:12;;;;;;;30.27;21.47;;;1.50;90.70;;;;;;6219823;23;20016;-78
2023/12/05 05:11:37;;;;;;;31.87;22.63;;;1.50;90.70;;;;;;6219498;23;20019;-78
2023/12/05 05:14:03;;;;;;;31.77;22.07;;;1.50;90.70;;;;;;6219940;23;20024;-78
2023/12/05 05:16:28;;;;;;;31.13;22.40;;;1.50;90.70;;;;;;6246516;23;20016;-79
2023/12/05 05:18:54;;;;;;;31.60;21.90;;;1.50;90.70;;;;;;6219358;23;20019;-79
2023/12/05 05:21:20;;;;;;;33.03;22.63;;;1.50;90.60;;;;;;6218924;23;20019;-78
2023/12/05 05:23:45;;;;;;;34.23;23.20;;;1.50;90.60;;;;;;6218924;23;20011;-78
2023/12/05 05:26:11;;;;;;;32.67;22.40;;;1.50;90.60;;;;;;6245871;23;20091;-78
2023/12/05 05:28:36;;;;;;;31.87;23.00;;;1.50;90.70;;;;;;6219082;23;20019;-78
2023/12/05 05:31:02;;;;;;;33.83;22.87;;;1.40;90.60;;;;;;6219440;23;20016;-79
2023/12/05 05:33:28;;;;;;;30.90;22.50;;;1.50;90.70;;;;;;6245546;23;20009;-78
2023/12/05 05:35:53;;;;;;;34.67;22.97;;;1.50;90.70;;;;;;6220043;23;20091;-79
2023/12/05 05:38:19;;;;;;;33.70;22.40;;;1.50;90.70;;;;;;6246432;23;20083;-79
2023/12/05 05:40:47;;;;;;;33.43;23.70;;;1.50;90.70;;;;;;6245225;23;20062;-78
2023/12/05 05:43:12;;;;;;;34.20;24.20;;;1.40;90.60;;;;;;6245789;23;20047;-78
2023/12/05 05:45:39;;;;;;;34.43;23.67;;;1.50;90.70;;;;;;6245399;23;20016;-78
2023/12/05 05:48:04;;;;;;;32.77;23.23;;;1.50;90.70;;;;;;6218744;23;20013;-78
2023/12/05 05:50:30;;;;;;;34.10;23.83;;;1.40;90.70;;;;;;6219667;23;20083;-78
2023/12/05 05:52:56;;;;;;;36.00;24.70;;;1.50;90.80;;;;;;6246585;23;20016;-76
2023/12/05 05:55:24;;;;;;;34.80;23.60;;;1.50;90.70;;;;;;6245511;23;20018;-76
2023/12/05 05:57:50;;;;;;;32.27;22.97;;;1.50;90.70;;;;;;6218422;23;20016;-76
2023/12/05 06:00:17;;;;;;;34.73;23.47;;;1.40;90.70;;;;;;6245735;23;20008;-76
2023/12/05 06:02:43;;;;;;;31.97;23.70;;;1.50;90.70;;;;;;6245853;23;20015;-76
2023/12/05 06:05:08;;;;;;;34.17;23.80;;;1.50;90.70;;;;;;6218444;23;20507;-76
2023/12/05 06:07:34;;;;;;;33.23;23.07;;;1.40;90.70;;;;;;6218778;23;20046;-76
2023/12/05 06:09:59;;;;;;;33.63;23.40;;;1.40;90.70;;;;;;6218603;23;20016;-76
2023/12/05 06:12:25;;;;;;;34.80;24.03;;;1.50;90.70;;;;;;6218528;23;20020;-76
2023/12/05 06:14:51;;;;;;;34.80;23.97;;;1.50;90.70;;;;;;6218639;23;20012;-76
2023/12/05 06:17:17;;;;;;;34.00;23.67;;;1.40;90.70;;;;;;6218339;23;20054;-76
2023/12/05 06:19:42;;;;;;;33.27;24.33;;;1.50;90.70;;;;;;6218590;23;20018;-76
2023/12/05 06:22:08;;;;;;;34.57;23.30;;;1.50;90.70;;;;;;6245299;23;20023;-76
2023/12/05 06:24:34;;;;;;;34.10;23.47;;;1.50;90.80;;;;;;6245865;23;20027;-78
2023/12/05 06:26:59;;;;;;;32.53;22.30;;;1.50;90.70;;;;;;6245829;23;20019;-78
2023/12/05 06:29:25;;;;;;;36.27;24.10;;;1.50;90.70;;;;;;6243955;23;20087;-78
2023/12/05 06:31:51;;;;;;;36.67;25.00;;;1.50;90.70;;;;;;6245291;23;20333;-77
2023/12/05 06:34:16;;;;;;;35.60;24.83;;;1.50;90.70;;;;;;6245314;23;20083;-76
2023/12/05 06:36:42;;;;;;;35.43;24.63;;;1.50;90.70;;;;;;6245902;23;20088;-76
2023/12/05 06:39:08;;;;;;;32.93;22.73;;;1.50;90.70;;;;;;6245358;23;20038;-76
2023/12/05 06:41:35;;;;;;;33.60;23.47;;;1.50;90.70;;;;;;6245212;23;20514;-76
2023/12/05 06:44:02;;;;;;;33.93;24.10;;;1.40;90.70;;;;;;6245662;23;20062;-76
2023/12/05 06:46:28;;;;;;;35.90;24.07;;;1.50;90.70;;;;;;6217960;23;20008;-76
2023/12/05 06:48:53;;;;;;;31.10;21.67;;;1.50;90.70;;;;;;6245769;23;20433;-76
2023/12/05 06:51:19;;;;;;;37.10;23.87;;;1.50;90.70;;;;;;6245651;23;20038;-77
2023/12/05 06:53:48;;;;;;;34.87;22.87;;;1.50;90.70;;;;;;6218544;23;20405;-77
2023/12/05 06:56:15;;;;;;;31.57;22.60;;;1.50;90.70;;;;;;6217650;23;20449;-77
2023/12/05 06:58:41;;;;;;;35.80;23.97;;;1.50;90.70;;;;;;6217769;23;20008;-77
2023/12/05 07:01:07;;;;;;;35.97;23.43;;;1.50;90.70;;;;;;6217736;23;20062;-76
2023/12/05 07:03:32;;;;;;;30.67;22.40;;;1.50;90.70;;;;;;6244798;23;20008;-76
2023/12/05 07:05:58;;;;;;;33.00;23.20;;;1.50;90.70;;;;;;6245152;23;20320;-76
2023/12/05 07:08:24;;;;;;;34.13;22.40;;;1.50;90.70;;;;;;6218037;23;20023;-77
2023/12/05 07:10:49;;;;;;;34.10;22.63;;;1.50;90.70;;;;;;6244998;23;20031;-77
2023/12/05 07:13:15;;;;;;;35.50;23.63;;;1.50;90.70;;;;;;6244439;23;20353;-77
2023/12/05 07:15:41;;;;;;;36.20;24.43;;;1.50;90.70;;;;;;6217621;23;20031;-76
2023/12/05 07:18:08;;;;;;;33.37;23.13;;;1.50;90.70;;;;;;6217381;23;20461;-76
2023/12/05 07:20:33;;;;;;;31.67;21.33;;;1.50;90.70;;;;;;6244783;23;20175;-76
2023/12/05 07:22:59;;;;;;;35.77;22.93;;;1.50;90.70;;;;;;6244958;23;20080;-77
2023/12/05 07:25:24;;;;;;;33.50;22.60;;;1.50;90.70;;;;;;6217773;23;20028;-77
2023/12/05 07:27:50;;;;;;;32.63;21.87;;;1.50;90.70;;;;;;6218105;23;20027;-77
2023/12/05 07:30:16;;;;;;;33.90;22.13;;;1.50;90.70;;;;;;6218236;23;20091;-78
2023/12/05 07:32:42;;;;;;;33.13;22.97;;;1.50;90.70;;;;;;6218014;23;20008;-78
2023/12/05 07:35:08;;;;;;;32.53;21.43;;;1.50;90.70;;;;;;6218274;23;20066;-77
2023/12/05 07:37:33;;;;;;;32.47;22.27;;;1.50;90.70;;;;;;6245228;23;20061;-77
2023/12/05 07:39:59;;;;;;;32.50;22.60;;;1.50;90.70;;;;;;6243525;23;20018;-77
2023/12/05 07:42:25;;;;;;;34.40;22.27;;;1.50;90.70;;;;;;6244953;23;20086;-77
2023/12/05 07:44:51;;;;;;;33.27;22.57;;;1.60;90.70;;;;;;6218225;23;20044;-78
2023/12/05 07:47:17;;;;;;;32.00;22.10;;;1.50;90.60;;;;;;6224358;23;20086;-79
2023/12/05 07:49:44;;;;;;;32.73;21.80;;;1.60;90.70;;;;;;6223569;23;20345;-79
2023/12/05 07:52:10;;;;;;;33.33;21.97;;;1.60;90.70;;;;;;6224575;23;20070;-79
2023/12/05 07:54:36;;;;;;;33.27;23.13;;;1.60;90.60;;;;;;6224679;23;20433;-79
2023/12/05 07:57:03;;;;;;;31.43;21.53;;;1.50;90.60;;;;;;6224486;23;20016;-79
2023/12/05 07:59:29;;;;;;;35.47;23.23;;;1.60;90.60;;;;;;6224278;23;20056;-79
2023/12/05 08:01:54;;;;;;;32.70;22.30;;;1.50;90.60;;;;;;6224993;23;20016;-79
2023/12/05 08:04:20;;;;;;;32.57;22.37;;;1.60;90.60;;;;;;6251344;23;20092;-79
2023/12/05 08:06:46;;;;;;;31.00;21.57;;;1.60;90.60;;;;;;6250926;23;20472;-79
2023/12/05 08:09:11;;;;;;;34.77;22.73;;;1.60;90.60;;;;;;6251245;23;20013;-79
2023/12/05 08:11:38;;;;;;;31.20;21.17;;;1.60;90.80;;;;;;6254638;23;20021;-79
2023/12/05 08:14:03;;;;;;;36.17;23.10;;;1.60;90.60;;;;;;6250237;23;20012;-79
2023/12/05 08:16:29;;;;;;;36.27;23.43;;;1.60;90.60;;;;;;6220218;23;20408;-77
2023/12/05 08:18:55;;;;;;;34.67;23.07;;;1.60;90.60;;;;;;6219651;23;20012;-77
2023/12/05 08:21:20;;;;;;;34.73;22.30;;;1.60;90.60;;;;;;6219691;23;20058;-77
2023/12/05 08:23:46;;;;;;;38.93;24.03;;;1.60;90.60;;;;;;6219624;23;20070;-77
2023/12/05 08:26:11;;;;;;;37.47;23.43;;;1.60;90.60;;;;;;6194850;23;20404;-79
2023/12/05 08:28:38;;;;;;;34.47;22.37;;;1.60;90.60;;;;;;6219667;23;20051;-78
2023/12/05 08:31:04;;;;;;;33.53;22.17;;;1.60;90.60;;;;;;6219676;23;20034;-78
2023/12/05 08:33:29;;;;;;;35.30;22.27;;;1.60;90.60;;;;;;6219735;23;20456;-78
2023/12/05 08:35:55;;;;;;;33.23;22.20;;;1.60;90.60;;;;;;6216583;23;20019;-78
2023/12/05 08:38:21;;;;;;;34.33;22.10;;;1.60;90.60;;;;;;6219463;23;20012;-78
2023/12/05 08:40:46;;;;;;;32.03;21.13;;;1.70;90.60;;;;;;6219554;23;20015;-78
2023/12/05 08:43:12;;;;;;;32.10;21.20;;;1.70;90.60;;;;;;6218640;23;20012;-78
2023/12/05 08:45:37;;;;;;;33.37;22.30;;;1.70;90.60;;;;;;6244871;23;20016;-78
2023/12/05 08:48:03;;;;;;;31.13;20.63;;;1.70;90.50;;;;;;6219731;23;20433;-78
2023/12/05 08:50:29;;;;;;;34.90;21.57;;;1.60;90.50;;;;;;6244577;23;20023;-78
2023/12/05 08:52:54;;;;;;;30.47;20.47;;;1.70;90.50;;;;;;6219243;23;20066;-78
2023/12/05 08:55:20;;;;;;;31.93;21.10;;;1.70;90.50;;;;;;6219098;23;20012;-78
2023/12/05 08:57:46;;;;;;;34.20;22.50;;;1.70;90.50;;;;;;6219109;23;20008;-77
2023/12/05 09:00:11;;;;;;;33.30;21.33;;;1.70;90.40;;;;;;6219346;23;20046;-78
2023/12/05 09:02:37;;;;;;;30.60;20.30;;;1.70;90.40;;;;;;6246978;23;20318;-78
2023/12/05 09:05:03;;;;;;;32.10;21.27;;;1.70;90.40;;;;;;6219147;23;20020;-78
2023/12/05 09:07:29;;;;;;;32.60;21.63;;;1.70;90.40;;;;;;6219280;23;20091;-78
2023/12/05 09:09:55;;;;;;;30.03;20.80;;;1.70;90.40;;;;;;6219354;23;20052;-78
2023/12/05 09:12:21;;;;;;;31.77;20.53;;;1.70;90.40;;;;;;6219060;23;20008;-78
2023/12/05 09:14:47;;;;;;;31.93;22.03;;;1.70;90.40;;;;;;6246714;23;20012;-77
2023/12/05 09:17:15;;;;;;;30.50;21.20;;;1.80;90.40;;;;;;6219233;23;20055;-77
2023/12/05 09:19:40;;;;;;;33.70;22.20;;;1.80;90.40;;;;;;6246504;23;20066;-77
2023/12/05 09:22:06;;;;;;;30.97;21.37;;;1.80;90.30;;;;;;6246033;23;20473;-77
2023/12/05 09:24:31;;;;;;;32.43;21.53;;;1.70;90.30;;;;;;6246465;23;20478;-77
2023/12/05 09:26:58;;;;;;;31.00;20.90;;;1.80;90.30;;;;;;6245702;23;20020;-77
2023/12/05 09:29:24;;;;;;;33.00;21.10;;;1.80;90.30;;;;;;6246058;23;20524;-77
2023/12/05 09:31:49;;;;;;;31.93;21.80;;;1.80;90.30;;;;;;6219140;23;20397;-77
2023/12/05 09:34:15;;;;;;;32.37;21.00;;;1.80;90.30;;;;;;6246205;23;20008;-78
2023/12/05 09:36:41;;;;;;;33.27;21.90;;;1.80;90.30;;;;;;6246243;23;20083;-78
2023/12/05 09:39:06;;;;;;;34.10;22.83;;;1.80;90.30;;;;;;6246403;23;20326;-78
2023/12/05 09:41:38;;;;;;;30.27;19.60;;;1.80;90.20;;;;;;6246418;23;20527;-78
2023/12/05 09:44:04;;;;;;;31.93;21.40;;;1.80;90.30;;;;;;6246012;23;20012;-78
2023/12/05 09:46:34;;;;;;;35.37;23.03;;;1.80;90.30;;;;;;6246353;23;20008;-78
2023/12/05 09:49:02;;;;;;;33.90;22.77;;;1.80;90.20;;;;;;6248010;23;20441;-79
2023/12/05 09:51:28;;;;;;;31.90;21.13;;;1.80;90.30;;;;;;6246092;23;20047;-79
2023/12/05 09:53:55;;;;;;;33.43;21.47;;;1.80;90.10;;;;;;6219158;23;20012;-79
2023/12/05 09:56:22;;;;;;;30.80;20.33;;;1.80;90.20;;;;;;6246137;23;20014;-78
2023/12/05 09:58:48;;;;;;;34.80;21.90;;;1.80;90.10;;;;;;6246174;23;20032;-77
2023/12/05 10:01:17;;;;;;;32.53;22.13;;;1.80;90.10;;;;;;6246164;23;20377;-78
2023/12/05 10:03:55;;;;;;;33.07;21.90;;;1.80;90.20;;;;;;6246372;23;20008;-78
2023/12/05 10:06:22;;;;;;;34.80;22.17;;;1.80;90.20;;;;;;6245681;23;20333;-78
2023/12/05 10:08:51;;;;;;;37.27;22.93;;;1.80;90.10;;;;;;6218838;23;20016;-78
2023/12/05 10:11:22;;;;;;;33.60;22.47;;;1.80;90.20;;;;;;6245547;23;20411;-78
2023/12/05 10:13:47;;;;;;;34.73;23.00;;;1.80;90.10;;;;;;6245958;23;20058;-78
2023/12/05 10:16:14;;;;;;;31.27;21.57;;;1.80;90.10;;;;;;6245841;23;20008;-78
2023/12/05 10:18:40;;;;;;;36.60;23.23;;;1.80;90.10;;;;;;6245911;23;20444;-78
2023/12/05 10:21:06;;;;;;;33.50;22.23;;;1.90;90.10;;;;;;6245881;23;20065;-78
2023/12/05 10:23:33;;;;;;;36.47;23.67;;;1.80;90.10;;;;;;6218635;23;20517;-78
2023/12/05 10:25:58;;;;;;;37.03;24.17;;;1.80;90.00;;;;;;6194800;23;20091;-78
2023/12/05 10:28:24;;;;;;;35.83;22.57;;;1.90;90.00;;;;;;6219456;23;20043;-78
2023/12/05 10:30:49;;;;;;;34.27;22.97;;;1.80;90.00;;;;;;6218602;23;20012;-78
2023/12/05 10:33:16;;;;;;;35.60;22.47;;;1.90;90.00;;;;;;6218829;23;20341;-78
2023/12/05 10:35:44;;;;;;;32.93;22.27;;;1.80;90.00;;;;;;6245698;23;20009;-78
2023/12/05 10:38:19;;;;;;;35.20;23.00;;;1.90;90.00;;;;;;6243629;23;20007;-77
2023/12/05 10:40:56;;;;;;;35.30;22.83;;;1.80;90.00;;;;;;6245804;23;20016;-77
2023/12/05 10:43:23;;;;;;;36.37;23.27;;;1.80;90.00;;;;;;6218688;23;20012;-77
2023/12/05 10:45:50;;;;;;;34.93;23.00;;;1.90;90.00;;;;;;6218378;23;20023;-77
2023/12/05 10:48:16;;;;;;;33.83;22.17;;;1.80;90.00;;;;;;6218763;23;20389;-77
2023/12/05 10:50:43;;;;;;;38.47;22.93;;;1.80;90.00;;;;;;6245609;23;20004;-77
2023/12/05 10:53:09;;;;;;;37.03;23.37;;;1.90;90.00;;;;;;6245015;23;20380;-77
2023/12/05 10:55:35;;;;;;;36.67;22.30;;;1.80;89.90;;;;;;6218617;23;20012;-78
2023/12/05 10:58:02;;;;;;;36.23;23.57;;;1.80;89.90;;;;;;6245833;23;20397;-78
2023/12/05 11:00:28;;;;;;;34.60;22.93;;;1.90;90.00;;;;;;6246294;23;20079;-78
2023/12/05 11:02:55;;;;;;;37.57;23.20;;;1.80;89.80;;;;;;6245575;23;20012;-78
2023/12/05 11:05:22;;;;;;;33.70;22.33;;;1.80;89.70;;;;;;6245692;23;20012;-78
2023/12/05 11:07:47;;;;;;;36.70;23.97;;;1.80;89.80;;;;;;6245392;23;20009;-80
2023/12/05 11:10:13;;;;;;;37.70;23.43;;;1.80;89.90;;;;;;6245587;23;20031;-78
2023/12/05 11:12:40;;;;;;;36.93;24.63;;;1.80;90.00;;;;;;6218307;23;20100;-78
2023/12/05 11:15:08;;;;;;;36.17;24.27;;;1.80;90.00;;;;;;6245647;23;20012;-78
2023/12/05 11:17:44;;;;;;;35.60;23.03;;;1.80;90.00;;;;;;6244970;23;20471;-78
2023/12/05 11:20:18;;;;;;;35.13;22.93;;;1.80;90.00;;;;;;6245426;23;20035;-77
2023/12/05 11:23:09;;;;;;;35.33;22.17;;;1.80;90.00;;;;;;6245151;23;20012;-77
2023/12/05 11:25:53;;;;;;;36.80;23.60;;;1.90;90.00;;;;;;6245462;23;20439;-77
2023/12/05 11:28:46;;;;;;;35.05;22.73;;;1.90;90.00;;;;;;6247568;23;20015;-77
2023/12/05 11:31:29;;;;;;;37.70;23.80;;;1.90;90.20;;;;;;6247342;23;20016;-77
2023/12/05 11:34:25;;;;;;;33.73;22.87;;;1.90;90.10;;;;;;6247534;23;20012;-77
2023/12/05 11:37:22;;;;;;;36.97;22.30;;;1.90;90.10;;;;;;6247344;23;20012;-77
2023/12/05 11:39:49;;;;;;;35.00;22.83;;;1.90;90.10;;;;;;6247409;23;20070;-77
2023/12/05 11:42:15;;;;;;;36.03;23.17;;;1.90;90.10;;;;;;6247326;23;20023;-77
2023/12/05 11:44:43;;;;;;;38.23;23.50;;;1.90;90.10;;;;;;6246796;23;20008;-77
2023/12/05 11:47:15;;;;;;;37.10;23.97;;;1.90;90.10;;;;;;6220182;23;20016;-77
2023/12/05 11:49:59;;;;;;;35.53;23.03;;;2.00;90.10;;;;;;6195221;23;20083;-78
2023/12/05 11:52:32;;;;;;;27.05;17.75;;;1.90;90.10;;;;;;6219983;23;20019;-78
2023/12/05 11:54:58;;;;;;;37.73;24.63;;;2.00;90.00;;;;;;6247272;23;20079;-78
2023/12/05 11:57:24;;;;;;;34.40;22.53;;;2.00;90.10;;;;;;6247029;23;20012;-78
2023/12/05 11:59:54;;;;;;;35.33;23.13;;;2.00;90.00;;;;;;6247062;23;20298;-78
2023/12/05 12:02:39;;;;;;;37.13;24.60;;;2.00;90.00;;;;;;6247423;23;20020;-78
2023/12/05 12:05:06;;;;;;;33.27;22.23;;;2.00;90.00;;;;;;6246380;23;20448;-78
2023/12/05 12:07:43;;;;;;;36.20;23.60;;;2.00;89.90;;;;;;6220242;23;20344;-78
2023/12/05 12:10:09;;;;;;;33.40;21.87;;;2.00;89.80;;;;;;6247207;23;20012;-78
2023/12/05 12:12:35;;;;;;;35.90;23.67;;;2.00;89.80;;;;;;6247315;23;20019;-78
2023/12/05 12:15:01;;;;;;;35.80;23.53;;;2.00;89.80;;;;;;6247357;23;20016;-78
2023/12/05 12:17:27;;;;;;;35.40;23.03;;;2.00;89.80;;;;;;6219994;23;20008;-78
2023/12/05 12:19:52;;;;;;;37.43;23.90;;;1.90;89.70;;;;;;6246797;23;20372;-77
2023/12/05 12:22:20;;;;;;;36.70;23.13;;;2.00;89.80;;;;;;6247205;23;20012;-77
2023/12/05 12:24:46;;;;;;;35.57;23.23;;;2.00;89.80;;;;;;6219989;23;20016;-77
2023/12/05 12:27:11;;;;;;;36.63;23.37;;;2.00;89.80;;;;;;6219765;23;20387;-77
2023/12/05 12:29:37;;;;;;;38.77;23.97;;;2.00;89.60;;;;;;6247002;23;20011;-77
2023/12/05 12:32:10;;;;;;;37.33;23.50;;;2.00;89.60;;;;;;6246987;23;20445;-77
2023/12/05 12:34:37;;;;;;;38.60;23.67;;;1.90;89.40;;;;;;6219528;23;20071;-77